Time;durP1;ratioP1;P1;durP2;ratioP2;P2;SDS_P1;SDS_P2;PMS_P1;PMS_P2;Temp;Humidity;BMP_temperature;BMP_pressure;BME280_temperature;BME280_humidity;BME280_pressure;Samples;Min_cycle;Max_cycle;Signal;HPM_P1;HPM_P2
2022/10/22 00:02:21;;;;;;;19.02;9.60;;;;;;;16.57;56.64;98104.41;5280318;27;20065;-80
2022/10/22 00:04:49;;;;;;;20.42;10.25;;;;;;;16.33;59.24;98097.28;5299975;27;20070;-80
2022/10/22 00:07:17;;;;;;;22.08;10.50;;;;;;;15.42;63.47;98087.44;5300093;27;20048;-80
2022/10/22 00:09:44;;;;;;;22.25;10.07;;;;;;;16.89;59.13;98092.69;5280073;27;20391;-80
2022/10/22 00:12:12;;;;;;;20.42;10.57;;;;;;;16.70;59.84;98095.72;5299956;27;20061;-80
2022/10/22 00:14:39;;;;;;;19.02;9.63;;;;;;;16.89;59.00;98089.25;5300063;27;20064;-80
2022/10/22 00:17:06;;;;;;;20.62;10.18;;;;;;;16.69;59.41;98103.63;5299644;27;20419;-80
2022/10/22 00:19:37;;;;;;;19.27;10.25;;;;;;;17.18;57.75;98092.50;5300062;27;20077;-80
2022/10/22 00:22:05;;;;;;;21.85;11.60;;;;;;;16.93;58.43;98095.97;5299531;27;20423;-81
2022/10/22 00:24:32;;;;;;;22.25;10.55;;;;;;;16.43;60.31;98097.50;5300009;27;20075;-80
2022/10/22 00:27:00;;;;;;;22.48;11.88;;;;;;;16.73;59.78;98103.34;5300066;27;20048;-80
2022/10/22 00:29:27;;;;;;;21.60;11.55;;;;;;;17.09;57.95;98098.34;5299533;27;20316;-81
2022/10/22 00:31:54;;;;;;;24.40;11.73;;;;;;;16.82;59.03;98091.47;5299995;27;20057;-81
2022/10/22 00:34:26;;;;;;;22.62;11.20;;;;;;;17.66;56.39;98096.09;5300038;27;20072;-80
2022/10/22 00:36:53;;;;;;;23.45;11.57;;;;;;;17.64;55.85;98098.78;5299572;27;20049;-80
2022/10/22 00:39:22;;;;;;;23.10;11.27;;;;;;;18.11;54.01;98093.75;5299580;27;20045;-80
2022/10/22 00:41:50;;;;;;;19.37;11.30;;;;;;;18.06;54.21;98094.06;5299713;27;20061;-80
2022/10/22 00:44:55;;;;;;;20.98;10.77;;;;;;;17.95;54.37;98094.00;5299484;27;20057;-80
2022/10/22 00:47:23;;;;;;;20.90;11.75;;;;;;;17.57;55.21;98083.69;5299901;27;20059;-80
2022/10/22 00:49:50;;;;;;;24.25;11.27;;;;;;;17.60;55.49;98083.47;5299863;27;20055;-80
2022/10/22 00:52:17;;;;;;;22.55;11.07;;;;;;;18.02;54.50;98082.19;5299575;27;20411;-81
2022/10/22 00:54:44;;;;;;;23.52;12.02;;;;;;;17.98;54.61;98080.78;5280401;27;20061;-80
2022/10/22 00:57:11;;;;;;;20.10;11.20;;;;;;;17.52;56.01;98077.94;5299468;27;20049;-81
2022/10/22 00:59:38;;;;;;;22.73;11.38;;;;;;;17.91;55.46;98082.16;5276345;27;20108;-80
2022/10/22 01:02:05;;;;;;;21.73;11.82;;;;;;;17.98;55.29;98080.78;5276430;27;20076;-80
2022/10/22 01:04:32;;;;;;;23.58;11.57;;;;;;;17.91;55.60;98079.53;5277548;27;20076;-81
2022/10/22 01:06:59;;;;;;;23.12;11.40;;;;;;;18.14;55.02;98076.09;5277902;27;20050;-81
2022/10/22 01:09:52;;;;;;;20.40;10.80;;;;;;;18.08;55.00;98075.72;5277898;27;20068;-80
2022/10/22 01:12:31;;;;;;;19.45;11.12;;;;;;;18.41;53.14;98073.22;5258318;27;20062;-81
2022/10/22 01:15:23;;;;;;;19.50;10.25;;;;;;;18.58;53.05;98061.50;5258730;27;20057;-80
2022/10/22 01:18:05;;;;;;;22.20;11.20;;;;;;;19.15;51.31;98063.31;5277918;27;20053;-80
2022/10/22 01:21:09;;;;;;;23.30;10.98;;;;;;;19.28;51.06;98057.94;5258720;27;20068;-80
2022/10/22 01:24:05;;;;;;;21.55;10.57;;;;;;;18.65;52.90;98054.09;5277884;27;20065;-80
2022/10/22 01:27:25;;;;;;;21.45;10.82;;;;;;;18.54;53.30;98046.19;5258289;27;20416;-80
2022/10/22 01:29:59;;;;;;;20.35;10.65;;;;;;;18.73;53.13;98041.28;5259301;27;20058;-80
2022/10/22 01:32:27;;;;;;;20.50;10.45;;;;;;;18.74;53.54;98035.94;5258098;27;20115;-81
2022/10/22 01:35:04;;;;;;;19.08;10.10;;;;;;;18.32;55.45;98039.97;5258493;27;20065;-80
2022/10/22 01:37:35;;;;;;;25.12;11.07;;;;;;;17.89;56.99;98037.88;5258700;27;20130;-80
2022/10/22 01:40:03;;;;;;;18.98;9.68;;;;;;;18.44;55.88;98043.44;5277590;27;20026;-80
2022/10/22 01:42:30;;;;;;;19.42;9.90;;;;;;;18.09;57.58;98033.81;5277822;27;20053;-80
2022/10/22 01:44:57;;;;;;;20.83;10.10;;;;;;;18.91;55.86;98037.25;5277790;27;20352;-80
2022/10/22 01:47:39;;;;;;;24.02;10.85;;;;;;;18.75;56.28;98047.22;5277440;27;20321;-81
2022/10/22 01:50:39;;;;;;;21.05;11.23;;;;;;;17.34;57.90;98041.78;5277857;27;20057;-80
2022/10/22 01:53:35;;;;;;;25.83;12.10;;;;;;;16.35;61.11;98037.28;5259189;26;20049;-80
2022/10/22 01:56:21;;;;;;;22.05;12.05;;;;;;;15.38;63.79;98029.63;5258405;27;20129;-80
2022/10/22 01:59:03;;;;;;;23.12;11.52;;;;;;;14.65;66.74;98021.94;5278059;27;20068;-80
2022/10/22 02:02:03;;;;;;;23.10;11.32;;;;;;;15.18;65.69;98024.81;5277405;27;20105;-80
2022/10/22 02:04:39;;;;;;;26.98;12.05;;;;;;;16.06;61.92;98032.25;5277814;27;20049;-80
2022/10/22 02:07:09;;;;;;;23.95;11.95;;;;;;;15.50;63.47;98039.25;5258615;27;20077;-80
2022/10/22 02:09:37;;;;;;;23.52;12.52;;;;;;;16.68;59.33;98044.63;5258153;27;20061;-81
2022/10/22 02:12:05;;;;;;;23.30;11.98;;;;;;;15.83;61.71;98043.28;5258559;27;20053;-81
2022/10/22 02:14:34;;;;;;;23.25;12.27;;;;;;;16.82;58.94;98046.34;5258095;27;20064;-81
2022/10/22 02:17:01;;;;;;;24.80;11.93;;;;;;;17.30;56.71;98039.50;5258639;27;20077;-80
2022/10/22 02:19:50;;;;;;;22.65;12.27;;;;;;;17.30;56.61;98042.09;5277718;27;20073;-80
2022/10/22 02:22:17;;;;;;;19.62;11.12;;;;;;;16.96;56.91;98026.19;5258056;27;20720;-80
2022/10/22 02:24:44;;;;;;;22.23;11.40;;;;;;;18.03;53.16;98021.22;5277568;27;20053;-80
2022/10/22 02:27:27;;;;;;;20.88;10.73;;;;;;;17.42;54.55;98027.37;5277773;27;20061;-80
2022/10/22 02:30:06;;;;;;;20.85;10.98;;;;;;;17.81;53.83;98019.34;5257950;27;20062;-80
2022/10/22 02:33:01;;;;;;;21.08;11.05;;;;;;;17.78;54.43;98026.56;5258520;27;20049;-80
2022/10/22 02:35:29;;;;;;;21.12;10.77;;;;;;;16.82;57.11;98020.28;5257931;27;20041;-81
2022/10/22 02:37:57;;;;;;;19.75;10.98;;;;;;;17.48;55.95;98021.72;5258503;27;20066;-80
2022/10/22 02:40:24;;;;;;;22.83;12.30;;;;;;;17.07;57.61;98022.84;5277604;27;20093;-80
2022/10/22 02:42:51;;;;;;;22.08;11.88;;;;;;;17.73;56.00;98019.03;5277226;27;20046;-81
2022/10/22 02:45:19;;;;;;;21.77;12.68;;;;;;;17.01;58.36;98015.44;5258296;27;20468;-80
2022/10/22 02:47:46;;;;;;;22.40;11.38;;;;;;;16.44;62.07;98018.44;5277602;27;20066;-80
2022/10/22 02:50:13;;;;;;;21.77;11.43;;;;;;;15.81;63.19;98022.56;5277136;27;20352;-80
2022/10/22 02:52:40;;;;;;;21.17;10.43;;;;;;;16.44;60.56;98023.66;5277459;27;20049;-80
2022/10/22 02:55:08;;;;;;;20.25;11.25;;;;;;;16.02;60.97;98009.09;5277405;27;20061;-80
2022/10/22 02:57:35;;;;;;;21.27;11.88;;;;;;;16.33;59.59;98008.75;5277345;27;20072;-80
2022/10/22 03:00:04;;;;;;;23.42;10.95;;;;;;;15.72;62.41;98015.34;5277155;27;20428;-80
2022/10/22 03:02:31;;;;;;;20.75;11.68;;;;;;;16.77;58.29;98023.19;5277334;27;20049;-80
2022/10/22 03:04:58;;;;;;;21.17;10.70;;;;;;;17.52;54.69;98023.16;5277839;27;20041;-80
2022/10/22 03:07:25;;;;;;;18.48;10.63;;;;;;;17.95;52.69;98027.94;5278462;27;20073;-80
2022/10/22 03:09:52;;;;;;;21.67;11.23;;;;;;;17.01;55.11;98013.69;5278332;27;20065;-80
2022/10/22 03:12:19;;;;;;;20.75;11.07;;;;;;;15.39;61.38;98013.09;5277914;27;20113;-80
2022/10/22 03:14:46;;;;;;;22.30;11.15;;;;;;;14.75;64.97;98011.84;5278132;27;20049;-80
2022/10/22 03:17:13;;;;;;;19.87;10.88;;;;;;;15.46;61.84;98010.94;5278834;26;20058;-80
2022/10/22 03:19:40;;;;;;;20.95;10.85;;;;;;;15.90;60.08;98008.12;5277855;27;20076;-80
2022/10/22 03:22:13;;;;;;;23.65;10.45;;;;;;;16.63;57.40;98020.66;5278354;27;20095;-80
2022/10/22 03:24:42;;;;;;;25.70;11.38;;;;;;;16.12;58.76;98010.16;5258644;27;20050;-81
2022/10/22 03:27:10;;;;;;;20.42;11.05;;;;;;;15.84;60.91;98009.38;5259075;27;20077;-80
2022/10/22 03:29:38;;;;;;;21.55;11.43;;;;;;;16.66;58.67;97997.81;5278079;27;20061;-80
2022/10/22 03:32:05;;;;;;;23.25;11.30;;;;;;;16.93;56.82;98015.16;5258670;27;20632;-80
2022/10/22 03:34:32;;;;;;;23.65;11.68;;;;;;;15.05;64.53;98004.78;5278065;27;20053;-80
2022/10/22 03:37:00;;;;;;;20.80;10.35;;;;;;;14.90;66.16;98008.34;5278179;27;20103;-80
2022/10/22 03:39:28;;;;;;;19.30;10.60;;;;;;;15.06;64.84;98013.41;5277710;27;20076;-80
2022/10/22 03:41:56;;;;;;;22.62;12.15;;;;;;;14.73;65.04;98014.53;5259091;27;20143;-80
2022/10/22 03:44:23;;;;;;;24.15;11.93;;;;;;;14.99;63.35;98009.50;5278038;27;20045;-80
2022/10/22 03:46:50;;;;;;;22.05;10.98;;;;;;;14.91;62.60;98009.16;5277816;27;20061;-80
2022/10/22 03:49:17;;;;;;;20.58;10.48;;;;;;;14.51;62.29;98006.34;5278226;27;20058;-80
2022/10/22 03:51:43;;;;;;;21.65;11.20;;;;;;;12.22;68.85;97998.09;5278295;27;20399;-80
2022/10/22 03:54:10;;;;;;;21.85;11.38;;;;;;;13.54;65.17;98012.78;5277737;27;20142;-80
2022/10/22 03:56:37;;;;;;;24.25;10.75;;;;;;;13.03;67.65;98006.88;5278344;27;20072;-80
2022/10/22 03:59:04;;;;;;;22.48;11.55;;;;;;;14.29;63.04;98000.72;5277783;27;20078;-80
2022/10/22 04:01:31;;;;;;;22.45;11.27;;;;;;;15.59;58.16;98007.47;5277718;27;20053;-80
2022/10/22 04:03:58;;;;;;;21.33;11.20;;;;;;;15.99;56.60;98004.09;5278238;27;20055;-80
2022/10/22 04:06:25;;;;;;;21.87;11.60;;;;;;;14.99;59.82;98006.91;5278166;27;20053;-80
2022/10/22 04:08:52;;;;;;;22.80;11.73;;;;;;;15.17;59.62;98010.16;5278597;26;20053;-80
2022/10/22 04:11:19;;;;;;;22.13;11.38;;;;;;;15.01;60.96;97997.28;5278209;27;20391;-80
2022/10/22 04:13:46;;;;;;;22.45;10.80;;;;;;;15.00;60.67;98003.41;5278152;26;20049;-81
2022/10/22 04:16:16;;;;;;;25.77;11.85;;;;;;;15.04;60.50;98002.28;5277986;27;20066;-80
2022/10/22 04:18:44;;;;;;;21.35;11.10;;;;;;;15.11;60.79;97997.56;5278370;26;20062;-80
2022/10/22 04:21:13;;;;;;;22.80;11.95;;;;;;;15.95;57.87;98000.88;5277697;27;20118;-81
2022/10/22 04:23:45;;;;;;;24.35;13.38;;;;;;;16.04;57.71;98002.03;5278171;27;20053;-80
2022/10/22 04:26:12;;;;;;;26.00;13.27;;;;;;;15.45;60.20;97993.69;5277891;27;20411;-80
2022/10/22 04:28:39;;;;;;;23.48;12.82;;;;;;;15.91;58.93;97992.41;5277833;27;20057;-80
2022/10/22 04:31:08;;;;;;;22.83;12.40;;;;;;;16.14;57.97;97990.91;5278009;27;20317;-80
2022/10/22 04:33:35;;;;;;;24.98;12.00;;;;;;;15.99;57.94;97981.53;5278331;26;20101;-80
2022/10/22 04:36:28;;;;;;;20.60;11.40;;;;;;;16.78;55.61;97978.78;5277553;27;20080;-80
2022/10/22 04:38:58;;;;;;;25.02;12.63;;;;;;;16.46;55.48;97983.53;5273947;27;20061;-80
2022/10/22 04:41:33;;;;;;;22.95;11.82;;;;;;;16.27;56.40;97987.47;5277932;27;20356;-80
2022/10/22 04:44:00;;;;;;;21.48;11.57;;;;;;;16.40;54.90;97996.16;5277845;27;20045;-80
2022/10/22 04:46:29;;;;;;;21.80;10.57;;;;;;;15.44;58.33;98002.41;5278023;27;20061;-80
2022/10/22 04:48:56;;;;;;;23.42;12.37;;;;;;;15.18;58.39;97999.66;5277557;27;20065;-81
2022/10/22 04:51:24;;;;;;;21.20;11.43;;;;;;;14.97;58.95;97991.44;5277749;27;20060;-80
2022/10/22 04:53:51;;;;;;;23.33;12.10;;;;;;;14.80;59.68;97983.00;5278069;27;20049;-80
2022/10/22 04:56:19;;;;;;;22.98;11.45;;;;;;;14.36;61.59;97973.50;5277510;27;20072;-80
2022/10/22 04:58:55;;;;;;;21.42;11.73;;;;;;;14.87;59.24;97966.94;5278042;27;20058;-80
2022/10/22 05:01:26;;;;;;;22.55;12.00;;;;;;;15.28;57.48;97974.78;5277900;26;20053;-80
2022/10/22 05:03:55;;;;;;;24.70;13.40;;;;;;;14.06;62.72;97966.59;5277571;27;20045;-80
2022/10/22 05:06:23;;;;;;;25.98;12.98;;;;;;;13.48;65.52;97982.00;5278727;26;20054;-80
2022/10/22 05:08:55;;;;;;;25.27;13.80;;;;;;;14.22;63.47;97984.66;5277861;27;20068;-80
2022/10/22 05:11:26;;;;;;;27.33;13.35;;;;;;;13.61;65.54;97990.78;5277482;27;20053;-81
2022/10/22 05:13:57;;;;;;;23.23;12.05;;;;;;;14.97;60.72;97999.22;5278054;27;20045;-80
2022/10/22 05:16:25;;;;;;;22.13;11.63;;;;;;;16.05;55.54;98007.13;5277727;27;20050;-80
2022/10/22 05:18:52;;;;;;;24.75;11.25;;;;;;;15.77;56.14;98008.09;5277668;27;20407;-80
2022/10/22 05:21:20;;;;;;;22.87;12.13;;;;;;;15.21;57.46;98001.25;5277725;27;20526;-80
2022/10/22 05:23:49;;;;;;;25.70;12.23;;;;;;;15.23;57.66;98002.81;5277329;27;20503;-81
2022/10/22 05:26:18;;;;;;;25.80;13.27;;;;;;;15.23;57.64;98002.81;5277459;27;20446;-80
2022/10/22 05:28:46;;;;;;;27.98;14.13;;;;;;;16.25;55.15;98003.22;5278332;27;20072;-80
2022/10/22 05:31:14;;;;;;;27.08;13.07;;;;;;;16.50;54.56;97999.81;5277518;27;20152;-81
2022/10/22 05:33:42;;;;;;;22.13;13.40;;;;;;;15.67;56.91;97990.59;5278039;26;20064;-80
2022/10/22 05:36:12;;;;;;;29.48;14.23;;;;;;;15.74;57.07;97997.91;5277798;27;20309;-80
2022/10/22 05:38:39;;;;;;;27.65;12.82;;;;;;;15.90;56.67;97998.56;5258196;27;20442;-80
2022/10/22 05:41:08;;;;;;;26.30;13.35;;;;;;;15.88;57.07;98002.19;5277617;27;20057;-80
2022/10/22 05:43:36;;;;;;;23.40;13.07;;;;;;;15.81;57.26;98006.97;5277787;27;20061;-80
2022/10/22 05:46:05;;;;;;;24.55;13.38;;;;;;;16.25;55.70;98002.38;5277377;27;20072;-80
2022/10/22 05:48:32;;;;;;;29.35;14.70;;;;;;;16.17;56.07;98001.12;5278529;26;20062;-80
2022/10/22 05:51:10;;;;;;;26.75;15.10;;;;;;;17.06;52.92;98010.75;5277740;27;20404;-80
2022/10/22 05:53:41;;;;;;;26.37;14.85;;;;;;;15.92;56.64;98011.47;5277485;27;20320;-80
2022/10/22 05:56:11;;;;;;;28.00;14.70;;;;;;;16.06;56.75;98021.84;5277604;27;20061;-80
2022/10/22 05:58:38;;;;;;;24.55;12.85;;;;;;;16.32;56.46;98014.06;5277922;27;20062;-80
2022/10/22 06:01:11;;;;;;;25.12;14.35;;;;;;;16.22;56.90;98013.00;5277074;27;20162;-80
2022/10/22 06:03:39;;;;;;;23.25;13.07;;;;;;;16.18;56.36;98010.59;5277687;27;20056;-80
2022/10/22 06:06:19;;;;;;;28.15;12.88;;;;;;;14.51;61.04;98006.34;5277128;27;20081;-80
2022/10/22 06:08:48;;;;;;;33.42;12.93;;;;;;;14.92;59.65;98006.47;5277841;27;20062;-80
2022/10/22 06:11:16;;;;;;;23.55;12.63;;;;;;;15.54;58.40;98019.09;5258509;27;20490;-80
2022/10/22 06:13:46;;;;;;;26.83;12.35;;;;;;;15.93;56.91;98012.31;5277412;27;20049;-80
2022/10/22 06:16:13;;;;;;;24.10;13.40;;;;;;;16.17;56.01;98014.16;5277686;27;20076;-80
2022/10/22 06:18:40;;;;;;;22.50;12.32;;;;;;;16.46;56.18;98014.78;5277899;27;20061;-80
2022/10/22 06:21:11;;;;;;;25.60;12.85;;;;;;;17.70;51.42;98024.50;5277314;27;20414;-80
2022/10/22 06:23:39;;;;;;;28.17;12.43;;;;;;;16.87;53.33;98016.41;5277560;27;20056;-80
2022/10/22 06:26:06;;;;;;;24.95;12.68;;;;;;;16.67;54.89;98015.12;5277540;27;20057;-80
2022/10/22 06:28:33;;;;;;;30.02;13.85;;;;;;;17.47;53.33;98022.66;5278009;26;20072;-80
2022/10/22 06:31:01;;;;;;;33.30;16.10;;;;;;;17.32;53.02;98014.13;5277609;27;20053;-80
2022/10/22 06:33:28;;;;;;;40.80;17.90;;;;;;;16.66;54.75;98021.28;5277564;27;20046;-80
2022/10/22 06:36:04;;;;;;;30.45;14.52;;;;;;;15.41;58.84;98024.22;5277111;27;20100;-80
2022/10/22 06:38:33;;;;;;;29.98;14.38;;;;;;;16.69;55.50;98026.31;5277175;27;20121;-80
2022/10/22 06:41:08;;;;;;;27.17;13.73;;;;;;;17.54;52.52;98042.13;5277194;27;20050;-81
2022/10/22 06:43:36;;;;;;;26.85;12.48;;;;;;;16.58;55.31;98020.94;5277477;27;20106;-80
2022/10/22 06:46:06;;;;;;;26.35;12.98;;;;;;;17.59;52.84;98029.63;5277492;27;20062;-80
2022/10/22 06:48:34;;;;;;;26.02;12.98;;;;;;;17.73;53.84;98031.25;5277256;27;20061;-80
2022/10/22 06:51:05;;;;;;;25.90;13.62;;;;;;;17.81;54.45;98032.38;5277441;27;20050;-80
2022/10/22 06:53:32;;;;;;;24.77;12.88;;;;;;;18.85;51.79;98037.72;5258500;27;20057;-80
2022/10/22 06:56:05;;;;;;;23.23;13.05;;;;;;;17.42;53.18;98036.00;5276990;27;20127;-80
2022/10/22 06:58:32;;;;;;;25.40;13.18;;;;;;;18.16;52.11;98044.63;5277463;27;20073;-80
2022/10/22 07:01:07;;;;;;;22.10;12.27;;;;;;;18.93;50.52;98047.59;5277067;26;20075;-80
2022/10/22 07:03:34;;;;;;;23.85;12.75;;;;;;;20.31;46.83;98051.41;5277150;27;20060;-80
2022/10/22 07:06:03;;;;;;;24.10;11.93;;;;;;;21.64;43.67;98058.50;5277256;27;20062;-80
2022/10/22 07:08:31;;;;;;;22.02;12.57;;;;;;;21.50;42.79;98051.00;5277610;27;20427;-80
2022/10/22 07:11:13;;;;;;;23.02;13.13;;;;;;;21.87;41.26;98054.66;5257874;27;20052;-80
2022/10/22 07:13:41;;;;;;;23.83;12.70;;;;;;;19.25;46.44;98048.56;5277496;27;20052;-80
2022/10/22 07:16:08;;;;;;;26.17;13.23;;;;;;;19.29;46.96;98054.38;5276958;27;20070;-80
2022/10/22 07:18:36;;;;;;;23.30;13.02;;;;;;;19.52;46.50;98044.72;5277626;27;20407;-80
2022/10/22 07:21:03;;;;;;;25.83;13.07;;;;;;;19.74;45.95;98051.72;5277199;27;20153;-80
2022/10/22 07:23:30;;;;;;;30.50;13.45;;;;;;;19.46;46.27;98050.41;5276932;27;20045;-80
2022/10/22 07:25:58;;;;;;;24.65;13.98;;;;;;;19.39;46.69;98050.09;5277132;27;20077;-80
2022/10/22 07:28:24;;;;;;;24.75;13.32;;;;;;;17.48;51.46;98045.19;5277501;27;20061;-80
2022/10/22 07:30:51;;;;;;;24.77;12.95;;;;;;;18.14;51.12;98047.34;5276852;27;20053;-80
2022/10/22 07:33:18;;;;;;;24.50;14.23;;;;;;;18.67;49.48;98046.94;5277502;27;20395;-80
2022/10/22 07:35:45;;;;;;;24.90;14.25;;;;;;;18.05;50.33;98044.59;5277169;27;20336;-80
2022/10/22 07:38:13;;;;;;;25.75;12.90;;;;;;;15.60;57.72;98039.53;5277061;27;20107;-80
2022/10/22 07:40:40;;;;;;;28.00;14.63;;;;;;;14.19;63.52;98047.97;5277250;27;20105;-80
2022/10/22 07:43:06;;;;;;;25.58;13.90;;;;;;;14.36;63.96;98048.78;5277028;27;20049;-80
2022/10/22 07:45:33;;;;;;;26.65;13.68;;;;;;;14.64;63.07;98035.84;5276523;27;20408;-80
2022/10/22 07:48:01;;;;;;;24.87;13.80;;;;;;;15.97;59.14;98037.22;5277380;27;20682;-80
2022/10/22 07:50:28;;;;;;;24.10;13.10;;;;;;;16.25;58.36;98044.88;5277888;27;20716;-80
2022/10/22 07:52:54;;;;;;;29.58;13.25;;;;;;;15.79;58.39;98050.44;5278531;26;20135;-80
2022/10/22 07:55:24;;;;;;;23.87;13.82;;;;;;;15.72;58.79;98051.75;5278172;27;20065;-80
2022/10/22 07:57:51;;;;;;;24.08;13.48;;;;;;;15.27;59.00;98056.28;5259038;27;20072;-80
2022/10/22 08:00:18;;;;;;;23.25;13.13;;;;;;;16.01;56.42;98054.28;5277359;26;20049;-80
2022/10/22 08:02:50;;;;;;;26.92;13.77;;;;;;;15.08;59.15;98047.94;5278284;27;20419;-79
2022/10/22 08:05:17;;;;;;;22.37;13.38;;;;;;;16.48;56.08;98054.62;5278452;26;20106;-80
2022/10/22 08:07:44;;;;;;;27.15;13.75;;;;;;;17.86;51.76;98055.53;5278189;27;20058;-80
2022/10/22 08:10:11;;;;;;;27.83;14.13;;;;;;;18.43;49.05;98047.81;5278020;27;20064;-80
2022/10/22 08:12:39;;;;;;;24.63;14.45;;;;;;;18.15;49.86;98049.03;5277838;27;20396;-80
2022/10/22 08:15:07;;;;;;;22.67;13.35;;;;;;;18.57;49.57;98052.00;5277938;27;20062;-80
2022/10/22 08:17:34;;;;;;;23.33;13.25;;;;;;;19.22;47.26;98050.56;5259156;27;20071;-79
2022/10/22 08:20:01;;;;;;;24.95;13.38;;;;;;;20.28;44.95;98053.44;5277779;27;20072;-80
2022/10/22 08:22:28;;;;;;;24.17;13.55;;;;;;;18.86;48.17;98062.91;5278568;26;20049;-80
2022/10/22 08:24:55;;;;;;;24.08;13.45;;;;;;;18.91;48.58;98047.69;5277963;27;20066;-79
2022/10/22 08:27:22;;;;;;;26.65;13.62;;;;;;;19.11;48.25;98045.34;5277852;27;20114;-80
2022/10/22 08:29:49;;;;;;;23.75;13.25;;;;;;;19.26;48.69;98065.09;5277938;27;20075;-80
2022/10/22 08:32:16;;;;;;;26.30;13.73;;;;;;;18.13;51.35;98061.38;5278073;27;20052;-80
2022/10/22 08:34:43;;;;;;;23.85;13.40;;;;;;;18.39;51.26;98067.25;5277508;27;20062;-80
2022/10/22 08:37:13;;;;;;;26.67;13.43;;;;;;;18.30;51.77;98059.31;5278182;27;20068;-80
2022/10/22 08:39:40;;;;;;;23.73;13.32;;;;;;;17.75;53.07;98071.13;5277819;27;20102;-80
2022/10/22 08:42:44;;;;;;;22.27;12.98;;;;;;;17.62;53.98;98064.13;5277643;27;20403;-80
2022/10/22 08:45:53;;;;;;;23.95;12.35;;;;;;;19.08;50.15;98069.94;5277665;27;20122;-80
2022/10/22 08:48:45;;;;;;;28.45;13.00;;;;;;;20.84;45.43;98058.41;5259620;27;20061;-80
2022/10/22 08:51:18;;;;;;;22.20;12.55;;;;;;;21.18;45.94;98065.09;5259057;26;20054;-80
2022/10/22 08:53:57;;;;;;;19.42;11.27;;;;;;;21.47;45.32;98057.34;5278210;27;20045;-79
2022/10/22 08:56:24;;;;;;;22.87;12.10;;;;;;;22.58;43.30;98061.50;5277584;27;20058;-79
2022/10/22 08:59:04;;;;;;;19.27;11.00;;;;;;;22.82;43.27;98064.50;5258661;27;20119;-80
2022/10/22 09:01:51;;;;;;;20.48;11.57;;;;;;;24.02;40.79;98072.44;5277815;26;20069;-80
2022/10/22 09:04:20;;;;;;;;;;;;;;;24.96;39.61;98073.59;5258948;27;20052;-79
2022/10/22 09:06:48;;;;;;;20.35;10.40;;;;;;;23.77;42.02;98066.94;5278092;27;19975;-79
2022/10/22 09:09:19;;;;;;;20.40;9.88;;;;;;;25.60;39.33;98063.53;5277821;27;20077;-80
2022/10/22 09:11:51;;;;;;;17.55;9.77;;;;;;;26.00;38.92;98062.03;5258744;27;20049;-79
2022/10/22 09:14:20;;;;;;;17.05;9.15;;;;;;;25.63;39.33;98064.06;5258848;27;20157;-79
2022/10/22 09:17:02;;;;;;;17.05;9.25;;;;;;;24.86;41.63;98064.13;5277910;27;20065;-80
2022/10/22 09:19:35;;;;;;;17.67;9.63;;;;;;;24.66;42.76;98068.75;5278006;27;20061;-80
2022/10/22 09:22:17;;;;;;;14.52;7.12;;;;;;;24.64;43.17;98073.37;5258976;27;20131;-80
2022/10/22 09:24:49;;;;;;;11.45;5.00;;;;;;;23.94;47.02;98074.03;5277894;27;20049;-80
2022/10/22 09:27:28;;;;;;;11.60;5.18;;;;;;;23.26;49.46;98070.88;5258683;27;20150;-80
2022/10/22 09:29:55;;;;;;;11.07;5.30;;;;;;;22.03;53.69;98069.91;5277607;27;20061;-80
2022/10/22 09:32:24;;;;;;;15.30;5.47;;;;;;;22.44;52.61;98073.28;5277985;27;20049;-80
2022/10/22 09:34:55;;;;;;;12.10;4.95;;;;;;;22.38;52.96;98073.81;5277796;27;20041;-80
2022/10/22 09:37:26;;;;;;;10.77;4.62;;;;;;;22.22;53.87;98071.72;5277674;27;20062;-80
2022/10/22 09:39:54;;;;;;;12.50;5.30;;;;;;;22.24;54.10;98072.44;5278016;27;20119;-80
2022/10/22 09:42:22;;;;;;;11.25;5.03;;;;;;;22.34;53.92;98069.81;5277981;27;20045;-80
2022/10/22 09:44:57;;;;;;;9.88;4.75;;;;;;;22.49;53.77;98061.34;5258097;27;20053;-80
2022/10/22 09:47:42;;;;;;;11.05;5.03;;;;;;;22.91;52.99;98065.47;5258606;27;20062;-79
2022/10/22 09:50:34;;;;;;;12.57;4.55;;;;;;;23.66;51.45;98065.34;5277498;27;20129;-80
2022/10/22 09:53:13;;;;;;;10.80;4.35;;;;;;;24.05;50.09;98070.38;5258603;27;20053;-80
2022/10/22 09:55:41;;;;;;;9.48;4.68;;;;;;;23.98;49.90;98071.94;5277803;27;20045;-80
2022/10/22 09:58:12;;;;;;;8.75;4.12;;;;;;;23.92;50.25;98078.59;5277715;27;20076;-79
2022/10/22 10:00:42;;;;;;;12.50;4.32;;;;;;;23.60;50.23;98073.81;5277430;26;20424;-80
2022/10/22 10:03:17;;;;;;;9.30;4.37;;;;;;;23.31;50.98;98065.22;5277896;27;20049;-79
2022/10/22 10:05:48;;;;;;;11.82;4.60;;;;;;;22.69;52.53;98054.28;5277555;27;20059;-80
2022/10/22 10:08:16;;;;;;;11.52;4.68;;;;;;;22.60;54.04;98065.63;5277920;27;20058;-80
2022/10/22 10:10:59;;;;;;;12.37;4.15;;;;;;;22.69;53.40;98066.59;5258466;27;20068;-80
2022/10/22 10:13:41;;;;;;;8.80;4.00;;;;;;;22.82;53.11;98064.50;5258300;27;20309;-80
2022/10/22 10:16:32;;;;;;;10.38;4.30;;;;;;;22.49;54.34;98076.31;5277720;27;20060;-80
2022/10/22 10:19:04;;;;;;;8.70;4.22;;;;;;;22.80;54.03;98077.78;5277565;27;20368;-79
2022/10/22 10:22:13;;;;;;;10.60;4.30;;;;;;;23.17;52.96;98073.56;5277787;27;20523;-80
2022/10/22 10:24:52;;;;;;;11.43;4.18;;;;;;;23.71;51.36;98071.94;5276953;27;20053;-80
2022/10/22 10:28:00;;;;;;;9.25;3.78;;;;;;;23.66;51.75;98067.97;5258311;27;20083;-79
2022/10/22 10:30:27;;;;;;;9.95;3.95;;;;;;;23.21;52.09;98056.53;5276898;27;20136;-79
2022/10/22 10:33:12;;;;;;;9.48;4.22;;;;;;;23.14;52.50;98056.25;5258461;26;20061;-80
2022/10/22 10:36:03;;;;;;;11.10;4.75;;;;;;;23.26;52.44;98067.44;5277608;27;20396;-80
2022/10/22 10:39:12;;;;;;;11.02;4.12;;;;;;;22.93;53.61;98074.88;5258483;27;20060;-80
2022/10/22 10:41:47;;;;;;;10.27;4.62;;;;;;;22.82;54.16;98082.91;5258268;27;20065;-80
2022/10/22 10:44:23;;;;;;;10.70;4.45;;;;;;;23.04;53.43;98066.81;5277553;27;20061;-80
2022/10/22 10:47:11;;;;;;;10.25;4.57;;;;;;;23.40;52.83;98069.59;5277319;27;20053;-80
2022/10/22 10:49:38;;;;;;;12.57;4.35;;;;;;;23.98;51.26;98077.19;5277686;27;20042;-80
2022/10/22 10:52:21;;;;;;;9.60;4.45;;;;;;;23.69;52.07;98082.63;5277611;27;20061;-80
2022/10/22 10:55:19;;;;;;;12.85;4.60;;;;;;;23.61;52.23;98086.03;5277161;27;20072;-80
2022/10/22 10:57:58;;;;;;;12.37;4.68;;;;;;;22.72;54.76;98089.97;5276604;27;20087;-80
2022/10/22 11:00:26;;;;;;;11.82;5.40;;;;;;;21.92;57.71;98088.44;5277123;27;20045;-80
2022/10/22 11:03:16;;;;;;;11.60;5.72;;;;;;;21.57;59.46;98094.13;5277418;27;20057;-80
2022/10/22 11:05:54;;;;;;;12.37;5.90;;;;;;;21.49;59.36;98093.97;5258273;27;20080;-80
2022/10/22 11:08:25;;;;;;;11.27;5.57;;;;;;;20.87;61.02;98102.75;5277253;27;20064;-80
2022/10/22 11:11:01;;;;;;;13.82;6.15;;;;;;;20.79;60.99;98101.59;5277479;27;20045;-79
2022/10/22 11:13:37;;;;;;;13.43;5.68;;;;;;;20.53;61.63;98108.16;5277457;27;20077;-80
2022/10/22 11:16:45;;;;;;;11.02;5.43;;;;;;;20.82;60.61;98094.41;5277127;27;20062;-80
2022/10/22 11:19:32;;;;;;;14.80;5.93;;;;;;;20.48;61.20;98089.34;5168356;27;20051;-80
2022/10/22 11:22:25;;;;;;;13.20;5.05;;;;;;;20.63;60.22;98097.72;5167960;27;20070;-80
2022/10/22 11:25:02;;;;;;;11.70;5.18;;;;;;;20.86;58.07;98095.84;5257753;27;20061;-79
2022/10/22 11:27:36;;;;;;;16.58;5.87;;;;;;;20.75;58.16;98096.75;5259136;27;20441;-79
2022/10/22 11:30:15;;;;;;;11.48;5.62;;;;;;;20.94;56.88;98093.38;5258856;27;20052;-79
2022/10/22 11:32:45;;;;;;;11.85;4.90;;;;;;;20.39;58.77;98097.94;5278440;27;20054;-79
2022/10/22 11:35:16;;;;;;;13.65;5.43;;;;;;;20.72;57.60;98097.81;5278121;27;20062;-80
2022/10/22 11:37:44;;;;;;;11.15;5.07;;;;;;;20.41;58.42;98096.00;5258925;27;20122;-79
2022/10/22 11:40:36;;;;;;;10.15;4.55;;;;;;;20.04;59.09;98095.56;5259067;26;20053;-80
2022/10/22 11:43:05;;;;;;;10.05;4.32;;;;;;;20.01;58.82;98091.41;5278021;27;20046;-80
2022/10/22 11:45:37;;;;;;;12.48;5.07;;;;;;;20.14;58.36;98089.47;5278101;27;20057;-79